Tiempo atmosférico en la estación meteorológica de Barcelona Aeropuerto, Barcelona (4 m.)



Fecha
DESCASC
Temp. máxima en grados centígrados (hora)
DESCASC
Temp. mínima en grados centígrados (hora)
DESCASC
Temp. media en grados centígrados
DESCASC
Racha de viento máxima en m/sg (hora)
DESCASC
Velocidad máxima media en intervalos de 10 minutos(hora)
DESCASC
Precipitaciones diarias en mm
DESCASC
Precipitaciones de 00:00 a 06:00 en mm
DESCASC
Precipitaciones de 06:00 a 12:00 en mm
DESCASC
Precipitaciones de 12:00 a 18:00 en mm
DESCASC
Precipitaciones de 18:00 a 24:00 en mm
DESCASC
19-01-2020 12.5 (15:40) 9.3 (08:00) 10.9 22.78 (16:50) 16.67 (17:30) 0.2 0.2 0 0 0
18-01-2020 14.7 (13:20) 7.2 (05:10) 10.9 9.72 (03:10) 7.78 (16:00) 0 0 0 0 0
17-01-2020 19 (15:00) 6.9 (08:20) 13 12.78 (15:50) 8.33 (12:10) 0 0 0 0 0
16-01-2020 14.8 (15:00) 4.8 (00:00) 9.8 8.33 (08:20) 6.39 (05:10) 0 0 0 0 0
15-01-2020 14.3 (14:50) 3.2 (00:00) 8.8 9.17 (14:20) 7.78 (14:30) 0 0 0 0 0
14-01-2020 14.4 (13:50) 2.7 (00:00) 8.5 9.72 (01:40) 8.06 (15:30) 0 0 0 0 0
13-01-2020 12.9 (14:40) 2.9 (00:00) 7.9 9.17 (14:30) 7.22 (14:20) 0 0 0 0 0
12-01-2020 14.7 (15:30) 2.4 (00:00) 8.5 9.17 (06:00) 7.22 (06:10) 0 0 0 0 0
11-01-2020 12.3 (15:40) 5.1 (00:00) 8.7 9.72 (04:00) 7.22 (03:50) 0 0 0 0 0
10-01-2020 12.5 (16:20) 6.8 (00:00) 9.7 14.44 (12:40) 6.94 (09:30) 21.5 0 21 0.5 0
09-01-2020 14.7 (13:20) 5.7 (00:00) 10.2 8.33 (16:00) 6.39 (16:10) 0 0 0 0 0
08-01-2020 16.7 (14:30) 4.7 (00:00) 10.7 8.33 (03:10) 5.56 (04:20) 0 0 0 0 0
07-01-2020 15.3 (15:20) 4.6 (00:00) 10 9.72 (04:10) 7.5 (09:50) 0 0 0 0 0
06-01-2020 16 (14:40) 4.1 (00:00) 10 8.89 (01:40) 6.94 (05:00) 0 0 0 0 0
05-01-2020 15.1 (15:10) 4.9 (00:00) 10 12.5 (02:10) 10 (02:10) 0 0 0 0 0
04-01-2020 14.8 (15:40) 3.9 (00:00) 9.4 10.83 (22:10) 7.5 (22:40) 0 0 0 0 0
03-01-2020 11 (14:50) 4.5 (00:00) 7.8 10.28 (09:40) 7.78 (09:10) 0 0 0 0 0
02-01-2020 14.7 (14:10) 4.1 (00:00) 9.4 9.72 (08:20) 7.5 (08:20) 0 0 0 0 0
01-01-2020 13.4 (15:00) 4.9 (00:00) 9.1 7.22 (01:50) 5.28 (02:30) 0 0 0 0 0
31-12-2019 14.8 (13:50) 6.6 (00:00) 10.7 9.72 (05:10) 7.5 (05:20) 0 0 0 0 0
30-12-2019 14.9 (13:50) 7.5 (00:00) 11.2 7.78 (01:40) 6.11 (23:59) 0 0 0 0 0
29-12-2019 14.6 (14:50) 8.2 (00:00) 11.4 6.11 (04:40) 5 (07:00) 0 0 0 0 0
28-12-2019 15.7 (15:30) 4.8 (00:00) 10.3 8.33 (04:20) 6.39 (04:20) 0 0 0 0 0
27-12-2019 15.3 (13:30) 7.4 (00:00) 11.4 8.89 (04:50) 6.39 (05:00) 0 0 0 0 0
26-12-2019 17.1 (17:00) 9.4 (00:00) 13.3 9.17 (02:40) 7.22 (02:50) 0 0 0 0 0
25-12-2019 18 (14:40) 8.8 (00:00) 13.4 10.83 (10:20) 7.5 (10:20) 0 0 0 0 0
24-12-2019 -- (--) -- (--) -- -- (--) -- (--) -- 0 0 0 --
23-12-2019 17.6 (15:10) 9 (00:00) 13.3 13.89 (07:50) 9.44 (03:40) 0 0 0 0 0
22-12-2019 19.2 (14:00) 13.4 (00:00) 16.3 24.72 (00:30) 17.22 (06:20) 0 0 0 0 0

Gráficas

Temp. máximas Temp. mínimas Temp. medias Precipitaciones Rachas de viento máximas Velocidades máximas media en intervalos de 10 minutos

Datos horarios

Fecha y hora oficial Temperatura (ºC) Velocidad del viento (km/h) Dirección del viento Racha (km/h) Dirección de racha Precipitación (mm) Presión (hPa) Tendencia (hPa) Humedad (%)
2020-01-20 23:00:00 7.8 53 Nordeste 72 Nordeste 2.1 1025.8 -0.3 97
2020-01-20 22:00:00 7.8 53 Nordeste 87 Nordeste 3.7 1026 0.2 96
2020-01-20 21:00:00 8.2 62 Nordeste 85 Este 3.2 1026.2 0.8 87
2020-01-20 20:00:00 8 66 Nordeste 85 Este 0.8 1026.1 1.3 85
2020-01-20 19:00:00 7.9 63 Este 84 Este 0.8 1025.8 1.2 85
2020-01-20 18:00:00 8.5 59 Nordeste 85 Este 0 1025.4 0.9 73
2020-01-20 17:00:00 9 69 Este 87 Este 0 1024.8 0 72
2020-01-20 16:00:00 9.8 69 Nordeste 89 Este 0 1024.6 -0.5 63
2020-01-20 15:00:00 10.2 72 Este 87 Este 0 1024.5 -0.9 59
2020-01-20 14:00:00 9.8 69 Este 85 Este 0 1024.8 -0.4 59
2020-01-20 13:00:00 10.1 64 Este 87 Este 0 1025.1 0.7 56
2020-01-20 12:00:00 11 65 Este 85 Este 0 1025.4 1.8 53
2020-01-20 11:00:00 10.6 62 Este 84 Este 0 1025.2 2 51
2020-01-20 10:00:00 10.8 55 Nordeste 80 Nordeste 0 1024.4 1.8 47
2020-01-20 09:00:00 10.8 55 Nordeste 76 Nordeste 0 1023.6 1.4 44
2020-01-20 08:00:00 10.5 48 Nordeste 71 Nordeste 0 1023.2 0.9 41
2020-01-20 07:00:00 10.6 42 Nordeste 67 Nordeste 0 1022.6 0.2 38
2020-01-20 06:00:00 11.1 45 Nordeste 65 Nordeste 0 1022.2 -0.3 32
2020-01-20 05:00:00 11.1 42 Nordeste 71 Nordeste 0 1022.3 -0.5 32
2020-01-20 04:00:00 11.3 46 Nordeste 61 Nordeste 0 1022.4 -0.8 30
2020-01-20 03:00:00 11.1 40 Nordeste 59 Nordeste 0 1022.5 -0.6 28
2020-01-20 02:00:00 11.1 42 Nordeste -- -- -- 1022.8 0 28
2020-01-20 01:00:00 11.1 42 Nordeste 71 Nordeste 0 1023.2 1 25
2020-01-20 00:00:00 11.4 44 Nordeste 71 Nordeste 0 1023.1 1.1 23
2020-01-19 23:00:00 11.3 46 Nordeste 67 Este 0 1022.8 1.1 23
2020-01-19 22:00:00 11.4 48 Nordeste 67 Nordeste 0 1022.2 1.2 24
2020-01-19 21:00:00 11.3 41 Nordeste 61 Nordeste 0 1022 1.3 25
2020-01-19 20:00:00 11.5 34 Nordeste 65 Este 0 1021.7 1 24
2020-01-19 19:00:00 11.6 50 Nordeste 68 Nordeste 0 1021 1.1 22
2020-01-19 18:00:00 11.5 46 Nordeste 82 Este 0 1020.7 1.2 22
2020-01-19 17:00:00 11.8 52 Este 82 Este 0 1020.7 1.2 24
2020-01-19 16:00:00 12.5 48 Este 63 Este 0 1019.9 0.1 27
2020-01-19 15:00:00 12.2 41 Este 59 Este 0 1019.5 -0.7 30
2020-01-19 14:00:00 12.1 50 Este 63 Este 0 1019.5 -0.4 33
2020-01-19 13:00:00 11.9 42 Este 71 Este 0 1019.8 0.8 34
2020-01-19 12:00:00 11.4 51 Este 67 Este 0 1020.2 1.4 37
2020-01-19 11:00:00 10.6 49 Este 63 Este 0 1019.9 1.4 46
2020-01-19 10:00:00 9.9 39 Este 52 Este 0 1019 0.9 59
2020-01-19 09:00:00 9.7 33 Nordeste 55 Nordeste 0 1018.8 0.6 72
2020-01-19 08:00:00 9.4 35 Este 52 Este 0 1018.5 0.2 75
2020-01-19 07:00:00 9.5 32 Este 46 Este 0 1018.1 -0.1 83
2020-01-19 06:00:00 9.7 28 Este 45 Este 0.2 1018.2 -0.6 92
2020-01-19 05:00:00 11.3 27 Este 39 Este 0 1018.3 -0.7 85
2020-01-19 04:00:00 11 12 Nordeste 17 Nordeste 0 1018.2 -1.3 79
2020-01-19 03:00:00 10.8 12 Norte 15 Norte 0 1018.8 -1 81
2020-01-19 02:00:00 10.6 11 Norte -- -- -- 1019 -1.6 81
2020-01-19 01:00:00 10.3 12 Nordeste 17 Norte 0 1019.5 -1.7 82
2020-01-19 00:00:00 9.9 10 Norte 11 Norte 0 1019.8 -1.5 82
2020-01-18 23:00:00 10.3 8 Norte 13 Norte 0 1020.6 -1.3 80
2020-01-18 22:00:00 11.1 5 Norte 11 Norte 0 1021.2 -0.8 78
2020-01-18 21:00:00 11.6 3 Oeste 11 Oeste 0 1021.3 -1.2 77
2020-01-18 20:00:00 11.9 8 Oeste 17 Oeste 0 1021.9 -1 74
2020-01-18 19:00:00 10.9 15 Oeste 21 Oeste 0 1022 -1.6 76
2020-01-18 18:00:00 12 13 Sudoeste 28 Oeste 0 1022.5 -2.1 70
2020-01-18 17:00:00 12.8 24 Oeste 35 Oeste 0 1022.9 -3.1 66
2020-01-18 16:00:00 13.6 28 Sudoeste 33 Oeste 0 1023.6 -3.5 58
2020-01-18 15:00:00 14.1 25 Sudoeste 30 Sudoeste 0 1024.6 -3.9 53
2020-01-18 14:00:00 14 21 Sudoeste 28 Sudoeste 0 1026 -3.7 46
2020-01-18 13:00:00 13.9 3 Noroeste 18 Norte 0 1027.1 -2.6 44
2020-01-18 12:00:00 12 15 Norte 22 Norte 0 1028.5 -1.2 51
2020-01-18 11:00:00 9.4 17 Norte 26 Norte 0 1029.7 0.4 60
2020-01-18 10:00:00 8 18 Norte 26 Norte 0 1029.7 0.4 64
2020-01-18 09:00:00 7.8 21 Norte 32 Norte 0 1029.7 1 63
2020-01-18 08:00:00 7.7 23 Norte 33 Norte 0 1029.3 -0.1 63
2020-01-18 07:00:00 7.9 22 Norte 35 Norte 0 1029.3 0 65
2020-01-18 06:00:00 7.5 17 Norte 24 Norte 0 1028.7 -1.1 67
2020-01-18 05:00:00 7.3 11 Norte 21 Norte 0 1029.4 -0.2 68
2020-01-18 04:00:00 7.5 13 Norte 35 Norte 0 1029.3 -0.1 66
2020-01-18 03:00:00 8 16 Norte 24 Norte 0 1029.8 0.1 62
2020-01-18 02:00:00 8.4 14 Norte -- -- -- 1029.6 0.6 62
2020-01-18 01:00:00 8.3 16 Norte 22 Norte 0 1029.4 1.3 64
2020-01-18 00:00:00 9.4 4 Nordeste 13 Noroeste 0 1029.7 2 57
2020-01-17 23:00:00 11.5 9 Norte 22 Noroeste 0 1029 1.4 49
2020-01-17 22:00:00 13 21 Noroeste 24 Noroeste 0 1028.1 1.5 40
2020-01-17 21:00:00 13.6 15 Oeste 37 Noroeste 0 1027.7 2.3 39
2020-01-17 20:00:00 14.3 3 Norte 15 Noroeste 0 1027.6 3.1 35
2020-01-17 19:00:00 14.4 8 Oeste 35 Oeste 0 1026.6 2.5 36
2020-01-17 18:00:00 15.3 15 Oeste 41 Oeste 0 1025.4 1.8 47
2020-01-17 17:00:00 16.9 26 Oeste 39 Noroeste 0 1024.5 1 42
2020-01-17 16:00:00 17.7 30 Noroeste 46 Noroeste 0 1024.1 -0.1 43
2020-01-17 15:00:00 18.9 21 Noroeste 37 Noroeste 0 1023.6 -1.5 39
2020-01-17 14:00:00 17.5 22 Oeste 33 Oeste 0 1023.5 -1.8 53
2020-01-17 13:00:00 17.5 25 Oeste 41 Oeste 0 1024.2 -1 52
2020-01-17 12:00:00 16.9 26 Oeste 37 Oeste 0 1025.1 0 55
2020-01-17 11:00:00 14 16 Oeste 32 Oeste 0 1025.3 0.4 77
2020-01-17 10:00:00 11.7 5 Sudoeste 13 Sudoeste 0 1025.2 0.7 85
2020-01-17 09:00:00 7.2 5 Nordeste 18 Este 0 1025.1 0.7 90
2020-01-17 08:00:00 7.3 10 Norte 15 Nordeste 0 1024.9 0 92
2020-01-17 07:00:00 8 4 Noroeste 21 Oeste 0 1024.5 -0.6 91
2020-01-17 06:00:00 10.5 12 Oeste 17 Oeste 0 1024.4 -1.2 94
2020-01-17 05:00:00 8.3 3 Oeste 11 Norte 0 1024.9 -1 95
2020-01-17 04:00:00 9.1 8 Norte 18 Norte 0 1025.1 -1 94
2020-01-17 03:00:00 9.9 5 Norte 15 Norte 0 1025.6 -1 92
2020-01-17 02:00:00 10.2 8 Norte -- -- -- 1025.9 -0.7 92
2020-01-17 01:00:00 9.8 3 Nordeste 13 Norte 0 1026.1 -0.6 92
2020-01-17 00:00:00 9.8 2 Norte 13 Norte 0 1026.6 0 91
2020-01-16 23:00:00 9 12 Norte 18 Norte 0 1026.6 0.3 91
2020-01-16 22:00:00 9.3 4 Norte 8 Norte 0 1026.7 0.4 90
2020-01-16 21:00:00 10.3 3 Noroeste 11 Oeste 0 1026.6 0.6 91
2020-01-16 20:00:00 11.8 8 Oeste 11 Oeste 0 1026.3 0.4 90
2020-01-16 19:00:00 11.8 5 Oeste 15 Sudoeste 0 1026.3 0.7 89
2020-01-16 18:00:00 12.8 12 Sudoeste 21 Sudoeste 0 1026 0.2 85
2020-01-16 17:00:00 14 16 Sudoeste 24 Sudoeste 0 1025.9 -0.4 79
2020-01-16 16:00:00 14.4 19 Sudoeste 26 Sudoeste 0 1025.6 -1.6 75
2020-01-16 15:00:00 14.7 18 Sudoeste 28 Sudoeste 0 1025.8 -2.2 69
2020-01-16 14:00:00 14.2 17 Sudoeste 24 Sudoeste 0 1026.3 -2.2 68
2020-01-16 13:00:00 13.8 13 Sudoeste 18 Sudoeste 0 1027.2 -1.2 63
2020-01-16 12:00:00 11.8 8 Norte 21 Norte 0 1028 -0.2 59
2020-01-16 11:00:00 9.2 17 Norte 24 Norte 0 1028.5 0.5 65
2020-01-16 10:00:00 6.7 19 Norte 26 Norte 0 1028.4 0.7 73
2020-01-16 09:00:00 4.9 20 Norte 30 Norte 0 1028.2 0.6 78
2020-01-16 08:00:00 4.9 22 Norte 28 Norte 0 1028 0.6 79
2020-01-16 07:00:00 5.1 21 Norte 28 Norte 0 1027.7 0.3 79
2020-01-16 06:00:00 5.3 20 Norte 28 Norte 0 1027.6 0.2 79
2020-01-16 05:00:00 5.7 21 Norte 26 Norte 0 1027.4 0.1 79
2020-01-16 04:00:00 5.9 20 Norte 26 Norte 0 1027.4 0.4 78
2020-01-16 03:00:00 6.3 19 Norte 26 Norte 0 1027.4 0.5 77
2020-01-16 02:00:00 6.7 13 Norte -- -- -- 1027.3 0.5 77
2020-01-16 01:00:00 7.5 16 Norte 26 Norte 0 1027 0.6 75
2020-01-16 00:00:00 7.6 19 Norte 26 Norte 0 1026.9 0.6 76
2020-01-15 23:00:00 8 15 Norte 21 Norte 0 1026.8 0.6 78
2020-01-15 22:00:00 8.8 3 Nordeste 8 Norte 0 1026.4 1.3 77
2020-01-15 21:00:00 9.2 7 Norte 15 Norte 0 1026.3 2.1 76
2020-01-15 20:00:00 10.7 3 Norte 17 Noroeste 0 1026.2 2.8 72
2020-01-15 19:00:00 10.8 13 Oeste 24 Oeste 0 1025.1 1.9 74
2020-01-15 18:00:00 11.8 19 Oeste 26 Oeste 0 1024.2 1.3 69
2020-01-15 17:00:00 13 18 Sudoeste 32 Oeste 0 1023.4 0.1 65
2020-01-15 16:00:00 13.6 24 Oeste 33 Oeste 0 1023.2 -0.5 56
2020-01-15 15:00:00 14.1 24 Oeste 33 Oeste 0 1022.9 -1.7 50
2020-01-15 14:00:00 14 22 Sudoeste 32 Oeste 0 1023.3 -1.3 55
2020-01-15 13:00:00 12.7 8 Oeste 15 Sudoeste 0 1023.7 -0.3 63
2020-01-15 12:00:00 9.9 9 Norte 22 Norte 0 1024.6 1.2 64
2020-01-15 11:00:00 7.4 16 Norte 24 Norte 0 1024.6 1.4 72
2020-01-15 10:00:00 5.6 20 Norte 26 Norte 0 1024 1.2 76
2020-01-15 09:00:00 3.5 18 Norte 26 Norte 0 1023.4 1.1 84
2020-01-15 08:00:00 3.5 19 Norte 26 Norte 0 1023.2 1.1 84
2020-01-15 07:00:00 3.7 18 Norte 26 Norte 0 1022.8 0.5 84
2020-01-15 06:00:00 3.7 21 Norte 28 Norte 0 1022.3 -0.2 85
2020-01-15 05:00:00 3.9 18 Norte 24 Norte 0 1022.1 -0.2 86
2020-01-15 04:00:00 4.4 18 Norte 24 Norte 0 1022.3 -0.2 86
2020-01-15 03:00:00 4.4 17 Norte 24 Norte 0 1022.5 -0.1 88
2020-01-15 02:00:00 5 15 Norte -- -- -- 1022.3 -0.2 88
2020-01-15 01:00:00 5.8 17 Norte 22 Norte 0 1022.5 0 88
2020-01-15 00:00:00 6.3 15 Norte 21 Norte 0 1022.6 0.3 88
2020-01-14 23:00:00 7.1 4 Nordeste 9 Norte 0 1022.5 0.4 83
2020-01-14 22:00:00 7.8 3 Norte 13 Norte 0 1022.5 0.9 82
2020-01-14 21:00:00 11.1 7 Oeste 21 Sudoeste 0 1022.3 1.3 74
2020-01-14 20:00:00 12.3 14 Sudoeste 26 Sudoeste 0 1022.1 1.3 74
2020-01-14 19:00:00 11.8 13 Oeste 22 Sudoeste 0 1021.6 1.2 76
2020-01-14 18:00:00 12.3 16 Sudoeste 28 Oeste 0 1021 0.9 73
2020-01-14 17:00:00 13.5 19 Sudoeste 30 Oeste 0 1020.8 0.1 62
2020-01-14 16:00:00 13.8 23 Sudoeste 35 Sudoeste 0 1020.4 -1 53
2020-01-14 15:00:00 14.2 27 Sudoeste 33 Sudoeste 0 1020.1 -2 47
2020-01-14 14:00:00 14.2 14 Sudoeste 22 Sudoeste 0 1020.7 -1.7 50
2020-01-14 13:00:00 13.1 3 Nordeste 11 Norte 0 1021.4 -0.4 52
2020-01-14 12:00:00 10.9 9 Norte 22 Norte 0 1022.1 0.8 55
2020-01-14 11:00:00 8 17 Norte 26 Norte 0 1022.4 1.2 61
2020-01-14 10:00:00 5.3 21 Norte 30 Norte 0 1021.8 0.7 70
2020-01-14 09:00:00 3.6 23 Norte 30 Norte 0 1021.3 0.7 77
2020-01-14 08:00:00 2.9 17 Norte 30 Norte 0 1021.2 0.6 80
2020-01-14 07:00:00 3.2 21 Norte 26 Norte 0 1021.1 0.8 80
2020-01-14 06:00:00 3.4 16 Norte 24 Norte 0 1020.6 -0.1 81
2020-01-14 05:00:00 3.6 6 Norte 22 Norte 0 1020.6 0 85
2020-01-14 04:00:00 4.2 15 Norte 22 Norte 0 1020.3 -1 82
2020-01-14 03:00:00 5 18 Norte 24 Norte 0 1020.7 -0.9 81
2020-01-14 02:00:00 5.4 14 Norte -- -- -- 1020.6 -1 84
2020-01-14 01:00:00 5.9 16 Norte 22 Norte 0 1021.3 -0.5 86
2020-01-14 00:00:00 6.1 15 Norte 21 Norte 0 1021.6 -0.2 88
2020-01-13 23:00:00 6.7 14 Norte 18 Norte 0 1021.6 -0.6 86
2020-01-13 22:00:00 7.2 14 Norte 17 Norte 0 1021.8 -0.5 84
2020-01-13 21:00:00 9.8 6 Oeste 17 Oeste 0 1021.8 0 76
2020-01-13 20:00:00 9.4 5 Norte 11 Noroeste 0 1022.2 0.4 79
2020-01-13 19:00:00 9.8 8 Oeste 15 Oeste 0 1022.3 0.2 78
2020-01-13 18:00:00 10.5 12 Oeste 24 Oeste 0 1021.8 -0.4 79
2020-01-13 17:00:00 11.7 16 Oeste 26 Oeste 0 1021.8 -1.3 75
2020-01-13 16:00:00 12.5 20 Oeste 32 Oeste 0 1022.1 -2.1 65
2020-01-13 15:00:00 12.8 25 Oeste 33 Oeste 0 1022.2 -3.1 63
2020-01-13 14:00:00 12.6 18 Oeste 24 Oeste 0 1023.1 -2.6 52
2020-01-13 13:00:00 12.2 13 Oeste 18 Oeste 0 1024.2 -1.3 46
2020-01-13 12:00:00 10.2 5 Norte 18 Norte 0 1025.3 0.1 55
2020-01-13 11:00:00 7.4 16 Norte 24 Norte 0 1025.7 0.4 62
2020-01-13 10:00:00 4.8 20 Norte 28 Norte 0 1025.5 0.2 69
2020-01-13 09:00:00 3.3 21 Norte 28 Norte 0 1025.2 -0.1 75
2020-01-13 08:00:00 3.3 18 Norte 28 Norte 0 1025.3 -0.5 74
2020-01-13 07:00:00 3 21 Norte 30 Norte 0 1025.3 -1 77
2020-01-13 06:00:00 3.1 18 Norte 24 Norte 0 1025.3 -1.4 77
2020-01-13 05:00:00 3.4 19 Norte 24 Norte 0 1025.8 -1 77
2020-01-13 04:00:00 3.8 16 Norte 24 Norte 0 1026.3 -1.2 77
2020-01-13 03:00:00 4.2 19 Norte 26 Norte 0 1026.7 -1.6 77
2020-01-13 02:00:00 4.8 19 Norte -- -- -- 1026.8 -1.8 75
2020-01-13 01:00:00 5.7 17 Norte 24 Norte 0 1027.5 -1.2 70
2020-01-13 00:00:00 5.9 17 Norte 24 Norte 0 1028.3 -0.8 71
2020-01-12 23:00:00 5.8 14 Norte 21 Norte 0 1028.6 -0.7 75
2020-01-12 22:00:00 5.8 3 Noroeste 8 Norte 0 1028.7 -0.4 80
2020-01-12 21:00:00 6.4 3 Norte 9 Norte 0 1029.1 0.7 82
2020-01-12 20:00:00 7.4 5 Noroeste 8 Norte 0 1029.3 1.2 80
2020-01-12 19:00:00 8.8 4 Norte 11 Oeste 0 1029.1 1.2 76
2020-01-12 18:00:00 10.4 9 Oeste 15 Sudoeste 0 1028.4 0.4 70
2020-01-12 17:00:00 13 10 Sudoeste 15 Sudoeste 0 1028.1 -0.5 57
2020-01-12 16:00:00 13.7 9 Sudoeste 15 Sudoeste 0 1027.9 -1.7 57
2020-01-12 15:00:00 13.9 7 Nordeste 22 Norte 0 1028 -2.6 46
2020-01-12 14:00:00 13 10 Norte 15 Norte 0 1028.6 -2.3 51
2020-01-12 13:00:00 11.8 13 Norte 18 Norte 0 1029.6 -0.7 55
2020-01-12 12:00:00 9.3 15 Norte 28 Norte 0 1030.6 0.8 62
2020-01-12 11:00:00 6.8 20 Norte 28 Norte 0 1030.9 1.4 69
2020-01-12 10:00:00 4.4 22 Norte 32 Norte 0 1030.3 0.9 77
2020-01-12 09:00:00 2.6 23 Norte 33 Norte 0 1029.8 0.7 83
2020-01-12 08:00:00 2.5 23 Norte 33 Norte 0 1029.5 0.5 84
2020-01-12 07:00:00 2.6 24 Norte 30 Norte 0 1029.4 0.1 84
2020-01-12 06:00:00 2.8 25 Norte 33 Norte 0 1029.1 -0.4 84
2020-01-12 05:00:00 3 22 Norte 32 Norte 0 1029 -0.4 85
2020-01-12 04:00:00 3.1 21 Norte 28 Norte 0 1029.3 -0.4 86
2020-01-12 03:00:00 3.4 22 Norte 28 Norte 0 1029.5 -0.6 86
2020-01-12 02:00:00 3.9 20 Norte -- -- -- 1029.4 -0.7 85
2020-01-12 01:00:00 4.2 21 Norte 26 Norte 0 1029.7 -0.4 84
2020-01-12 00:00:00 5.1 19 Norte 26 Norte 0 1030.1 -0.1 80
2020-01-11 23:00:00 5.3 15 Norte 21 Norte 0 1030.1 -0.1 80
2020-01-11 22:00:00 5.8 14 Norte 22 Nordeste 0 1030.1 0.3 78
2020-01-11 21:00:00 6.5 12 Norte 17 Norte 0 1030.2 0.9 77
2020-01-11 20:00:00 6.9 9 Norte 15 Norte 0 1030.2 1 77
2020-01-11 19:00:00 8.2 8 Norte 13 Norte 0 1029.8 0.5 70
2020-01-11 18:00:00 10.1 5 Norte 11 Norte 0 1029.3 0.1 63
2020-01-11 17:00:00 11.8 10 Noroeste 15 Norte 0 1029.2 -0.4 60
2020-01-11 16:00:00 12.2 12 Norte 17 Norte 0 1029.3 -1.2 56
2020-01-11 15:00:00 11.9 12 Norte 22 Norte 0 1029.2 -1.9 58
2020-01-11 14:00:00 11 18 Norte 26 Norte 0 1029.6 -1.4 60
2020-01-11 13:00:00 10.2 21 Norte 33 Norte 0 1030.5 -0.1 64
2020-01-11 12:00:00 9.4 23 Norte 35 Norte 0 1031.1 1.2 70
2020-01-11 11:00:00 8.5 23 Norte 32 Norte 0 1031 1.5 73
2020-01-11 10:00:00 7.2 22 Norte 33 Norte 0 1030.6 1.4 77
2020-01-11 09:00:00 5.7 22 Norte 32 Norte 0 1029.9 1.3 84
2020-01-11 08:00:00 5.8 21 Norte 28 Norte 0 1029.5 0.9 84
2020-01-11 07:00:00 6.1 21 Norte 32 Norte 0 1029.2 0.6 85
2020-01-11 06:00:00 6.2 22 Norte 33 Norte 0 1028.6 0.2 86
2020-01-11 05:00:00 6.3 22 Norte 32 Norte 0 1028.6 0.4 87
2020-01-11 04:00:00 6.2 24 Norte 35 Norte 0 1028.6 0 87
2020-01-11 03:00:00 6.6 18 Norte 28 Norte 0 1028.4 0 88
2020-01-11 02:00:00 6.7 19 Norte 28 Nordeste 0 1028.2 0 87
2020-01-11 01:00:00 6.9 18 Norte 26 Norte 0 1028.6 0.7 88
2020-01-11 00:00:00 7.1 15 Norte 21 Norte 0 1028.4 0.9 88
2020-01-10 23:00:00 6.9 12 Norte 17 Noroeste 0 1028.2 1 89
2020-01-10 22:00:00 7.2 9 Nordeste 13 Norte 0 1027.9 1.3 88
2020-01-10 21:00:00 8 11 Norte 22 Norte 0 1027.5 1.5 85
2020-01-10 20:00:00 8.9 13 Norte 22 Norte 0 1027.2 1.6 81
2020-01-10 19:00:00 9.1 12 Norte 17 Norte 0 1026.6 1.2 84
2020-01-10 18:00:00 10.5 13 Norte 18 Norte 0 1026 1 81
2020-01-10 17:00:00 11.8 5 Norte 24 Norte 0 1025.6 1 83
2020-01-10 16:00:00 12.1 12 Norte 18 Norte 0 1025.4 0.4 81
2020-01-10 15:00:00 11.6 15 Norte 22 Norte 0 1025 -1.1 81
2020-01-10 14:00:00 11.2 10 Nordeste 18 Nordeste 0.1 1024.6 -1.5 87
2020-01-10 13:00:00 9.8 14 Norte 52 Norte 0.4 1025 -0.3 92
2020-01-10 12:00:00 9.5 16 Nordeste 39 Nordeste 1.2 1026.1 1.5 94
2020-01-10 11:00:00 9.4 18 Norte 46 Norte 4 1026.1 2 97
2020-01-10 10:00:00 9.8 14 Norte 35 Nordeste 4.4 1025.3 1.7 97
2020-01-10 09:00:00 9.6 12 Norte 46 Norte 6.5 1024.6 1.6 98
2020-01-10 08:00:00 8.9 14 Norte 37 Norte 3.2 1024.1 1 97
2020-01-10 07:00:00 9.3 15 Norte 21 Norte 1.7 1023.6 0.1 95
2020-01-10 06:00:00 9.9 13 Norte 17 Norte 0 1023 -0.5 86
2020-01-10 05:00:00 9.9 13 Norte 17 Norte 0 1023.1 -0.3 86
2020-01-10 04:00:00 9.8 11 Norte 13 Norte 0 1023.5 0.2 87
2020-01-10 03:00:00 9.8 10 Norte 15 Nordeste 0 1023.5 -0.4 88
2020-01-10 02:00:00 9.1 6 Norte 11 Norte 0 1023.4 -0.6 90
2020-01-10 01:00:00 8.4 5 Nordeste 8 Nordeste 0 1023.3 -0.8 90
2020-01-10 00:00:00 8.5 4 Este 9 Norte 0 1023.9 -0.2 89
2020-01-09 23:00:00 8.8 4 Noroeste 11 Noroeste 0 1024 -1 87
2020-01-09 22:00:00 10 2 Oeste 15 Oeste 0 1024.1 -0.4 86
2020-01-09 21:00:00 10.9 10 Oeste 17 Oeste 0 1024.1 0 83
2020-01-09 20:00:00 11.9 14 Oeste 24 Oeste 0 1025 0.5 79
2020-01-09 19:00:00 12.1 14 Oeste 26 Oeste 0 1024.5 -0.3 78
2020-01-09 18:00:00 12.3 17 Sudoeste 26 Sudoeste 0 1024.1 -1 79
2020-01-09 17:00:00 12.8 19 Oeste 30 Oeste 0 1024.5 -1.3 78
2020-01-09 16:00:00 13.9 23 Sudoeste 30 Sudoeste 0 1024.8 -1.9 75
2020-01-09 15:00:00 14.2 21 Oeste 28 Oeste 0 1025.1 -2.6 72
2020-01-09 14:00:00 14.2 19 Sudoeste 26 Oeste 0 1025.8 -2.6 74
2020-01-09 13:00:00 14.1 17 Sudoeste 24 Sudoeste 0 1026.7 -1.5 75
2020-01-09 12:00:00 12.6 2 Noroeste 13 Norte 0 1027.7 -0.2 74
2020-01-09 11:00:00 9.3 12 Norte 21 Nordeste 0 1028.4 0.8 78
2020-01-09 10:00:00 6.9 15 Norte 24 Norte 0 1028.2 0.3 84
2020-01-09 09:00:00 5.7 21 Norte 26 Norte 0 1027.9 -0.1 87
2020-01-09 08:00:00 6 17 Norte 24 Norte 0 1027.6 -0.7 89
2020-01-09 07:00:00 5.9 18 Norte 24 Norte 0 1027.9 -0.9 90
2020-01-09 06:00:00 6.2 19 Norte 24 Norte 0 1028 -1.3 90
2020-01-09 05:00:00 6.6 18 Norte 22 Norte 0 1028.3 -1.2 91
2020-01-09 04:00:00 7.3 17 Norte 21 Norte 0 1028.8 -1.1 91
2020-01-09 03:00:00 7.4 16 Norte 22 Norte 0 1029.3 -1 91
2020-01-09 02:00:00 7.4 14 Norte 18 Norte 0 1029.5 -1 93
2020-01-09 01:00:00 7.6 15 Norte 18 Norte 0 1029.9 -0.8 93
2020-01-09 00:00:00 7.5 11 Norte 17 Norte 0 1030.3 -0.5 93
2020-01-08 23:00:00 8 5 Norte 13 Norte 0 1030.5 0 93
2020-01-08 22:00:00 8.4 7 Norte 13 Norte 0 1030.7 0.3 91
2020-01-08 21:00:00 9.3 4 Norte 9 Norte 0 1030.8 0.7 88
2020-01-08 20:00:00 9.9 5 Norte 9 Oeste 0 1030.5 0.7 87
2020-01-08 19:00:00 11.4 6 Noroeste 11 Este 0 1030.4 0.6 83
2020-01-08 18:00:00 13.3 9 Este 13 Sudeste 0 1030.1 0.4 78
2020-01-08 17:00:00 14.8 7 Sudeste 17 Sudeste 0 1029.8 0.1 72
2020-01-08 16:00:00 15 13 Sudeste 21 Sudeste 0 1029.8 -0.3 65
2020-01-08 15:00:00 15.9 12 Sudeste 17 Sudeste 0 1029.7 -1.2 59
2020-01-08 14:00:00 16.1 4 Este 13 Sudeste 0 1029.7 -1.7 57
2020-01-08 13:00:00 14.4 9 Norte 24 Norte 0 1030.1 -0.9 57
2020-01-08 12:00:00 11.9 18 Norte 24 Norte 0 1030.9 0.5 60
2020-01-08 11:00:00 9.6 19 Norte 26 Norte 0 1031.4 1.6 66
2020-01-08 10:00:00 7.5 16 Norte 26 Norte 0 1031 1.8 72
2020-01-08 09:00:00 5.1 19 Norte 26 Norte 0 1030.4 1.9 79
2020-01-08 08:00:00 4.9 17 Norte 24 Norte 0 1029.8 1.7 80
2020-01-08 07:00:00 4.8 17 Norte 24 Norte 0 1029.2 1.1 81
2020-01-08 06:00:00 5.2 16 Norte 24 Norte 0 1028.5 0.6 80
2020-01-08 05:00:00 5.6 16 Norte 26 Norte 0 1028.1 0.8 78
2020-01-08 04:00:00 5.8 19 Norte 30 Norte 0 1028.1 0.8 77
2020-01-08 03:00:00 6.3 20 Norte 28 Norte 0 1027.9 0.2 74
2020-01-08 02:00:00 6.8 17 Norte 22 Norte 0 1027.3 -0.4 73
2020-01-08 01:00:00 6.5 17 Norte 26 Norte 0 1027.3 -0.6 73
2020-01-08 00:00:00 7.5 21 Norte 26 Norte 0 1027.7 -0.5 69
2020-01-07 23:00:00 7.5 14 Norte 24 Norte 0 1027.7 -0.7 70
2020-01-07 22:00:00 7.9 18 Norte 26 Norte 0 1027.9 -0.3 68
2020-01-07 21:00:00 8.6 17 Norte 22 Norte 0 1028.2 0.4 68
2020-01-07 20:00:00 9.4 15 Norte 22 Norte 0 1028.4 0.8 67
2020-01-07 19:00:00 9.7 9 Norte 13 Norte 0 1028.2 0.7 82
2020-01-07 18:00:00 11.8 6 Oeste 11 Sudoeste 0 1027.8 0 76
2020-01-07 17:00:00 13.4 10 Sudoeste 15 Sudoeste 0 1027.6 -0.6 71
2020-01-07 16:00:00 13.7 12 Sudoeste 17 Sudoeste 0 1027.5 -1.7 66
2020-01-07 15:00:00 14.6 7 Oeste 17 Oeste 0 1027.8 -2.1 65
2020-01-07 14:00:00 14.3 11 Sudoeste 21 Norte 0 1028.2 -2.4 62
2020-01-07 13:00:00 12.2 17 Norte 24 Norte 0 1029.2 -1.5 54
2020-01-07 12:00:00 10.8 14 Norte 32 Norte 0 1029.9 -0.3 59
2020-01-07 11:00:00 8.3 23 Norte 33 Norte 0 1030.6 0.8 66
2020-01-07 10:00:00 6 25 Norte 35 Norte 0 1030.7 1.1 73
2020-01-07 09:00:00 4.9 26 Norte 32 Norte 0 1030.2 0.5 77
2020-01-07 08:00:00 4.8 23 Norte 33 Norte 0 1029.8 0.1 78
2020-01-07 07:00:00 5 25 Norte 35 Norte 0 1029.6 -0.5 78
2020-01-07 06:00:00 5.3 25 Norte 35 Norte 0 1029.7 -0.3 79
2020-01-07 05:00:00 5.5 20 Norte 35 Norte 0 1029.7 -0.3 82
2020-01-07 04:00:00 5.3 25 Norte 32 Norte 0 1030.1 0 83
2020-01-07 03:00:00 6.3 18 Norte 28 Norte 0 1030 -0.1 84
2020-01-07 02:00:00 6.6 18 Norte 26 Nordeste 0 1030 0.2 86
2020-01-07 01:00:00 6.4 19 Norte 26 Norte 0 1030.1 0.5 87
2020-01-07 00:00:00 7.3 16 Norte 22 Norte 0 1030.1 0.9 89
2020-01-06 23:00:00 7.5 14 Norte 18 Norte 0 1029.8 1.1 88
2020-01-06 22:00:00 7.8 14 Norte 21 Norte 0 1029.6 1.2 88
2020-01-06 21:00:00 8.1 15 Norte 18 Norte 0 1029.2 1.2 88
2020-01-06 20:00:00 9.1 4 Norte 5 Norte 0 1028.7 1 85
2020-01-06 19:00:00 10.5 5 Noroeste -- -- 0 1028.4 0.8 79
2020-01-06 18:00:00 12.5 5 Oeste 9 Oeste 0 1028 0.8 73
2020-01-06 17:00:00 14.4 5 Sudoeste 13 Sur 0 1027.7 0 64
2020-01-06 16:00:00 14.6 8 Sur 15 Sudeste 0 1027.6 -0.9 63
2020-01-06 15:00:00 15.2 8 Sur 13 Sur 0 1027.2 -2.3 59
2020-01-06 14:00:00 15.6 0 Calma 13 Norte 0 1027.7 -2.2 59
2020-01-06 13:00:00 13.7 12 Norte 21 Norte 0 1028.5 -1.4 57
2020-01-06 12:00:00 11.5 17 Norte 26 Norte 0 1029.5 -0.1 58
2020-01-06 11:00:00 9 19 Norte 26 Norte 0 1029.9 0.8 65
2020-01-06 10:00:00 6.1 19 Norte 28 Norte 0 1029.9 1 76